Camano City, Washington
Current Conditions -  °F | °C
As of 3:15 PM on Tuesday 27 Jan 2015 (Local Time) from KAWO Reporting Station
Overcast Overcast  
Wind Chill: 50°   Ceiling: 1500
Heat Index: 50°   Visibility: 7mi
Dew Point: 46°   Wind: 5mph
Humidity: 87%   Direction: 170°S
Pressure: 30.12"   Gusts: NA
Location:  48.2145°N, 122.297°W
Report Text: KAWO 272315Z AUTO 17004KT 7SM FEW010 OVC015 10/08 A3012 RMK AO1
Loading
Personal Weather Stations






























Interactive Weather Map New forecast layout! Learn more

10-Day Weather Forecast

Advertisements
Track Severe Weather on mobile